createdAt,value
2023-02-08T00:00:13.805Z,12.47
2023-02-08T00:02:40.885Z,12.10
2023-02-08T00:05:07.908Z,12.90
2023-02-08T00:07:34.900Z,12.30
2023-02-08T00:10:05.128Z,12.73
2023-02-08T00:12:32.176Z,12.27
2023-02-08T00:14:58.960Z,12.50
2023-02-08T00:17:26.143Z,12.83
2023-02-08T00:19:53.060Z,12.83
2023-02-08T00:22:19.996Z,13.10
2023-02-08T00:24:46.880Z,12.63
2023-02-08T00:27:13.918Z,12.57
2023-02-08T00:29:40.724Z,12.83
2023-02-08T00:32:08.522Z,12.70
2023-02-08T00:34:35.470Z,12.80
2023-02-08T00:37:02.371Z,13.00
2023-02-08T00:39:29.266Z,12.90
2023-02-08T00:41:56.216Z,12.93
2023-02-08T00:44:23.172Z,12.77
2023-02-08T00:46:50.161Z,13.10
2023-02-08T00:49:17.724Z,13.00
2023-02-08T00:51:45.061Z,13.17
2023-02-08T00:54:19.540Z,13.20
2023-02-08T00:56:47.452Z,13.77
2023-02-08T00:59:14.700Z,13.77
2023-02-08T01:01:44.989Z,13.47
2023-02-08T01:04:12.260Z,13.67
2023-02-08T01:06:39.327Z,13.80
2023-02-08T01:09:06.379Z,13.20
2023-02-08T01:11:33.364Z,13.60
2023-02-08T01:14:00.716Z,12.97
2023-02-08T01:16:31.174Z,13.73
2023-02-08T01:19:01.838Z,13.40
2023-02-08T01:21:31.453Z,13.80
2023-02-08T01:23:58.767Z,13.03
2023-02-08T01:26:26.875Z,13.50
2023-02-08T01:28:55.347Z,13.77
2023-02-08T01:31:29.512Z,13.77
2023-02-08T01:33:57.500Z,13.73
2023-02-08T01:36:24.622Z,13.97
2023-02-08T01:38:51.739Z,13.43
2023-02-08T01:41:27.167Z,13.60
2023-02-08T01:44:03.189Z,12.93
2023-02-08T01:46:33.144Z,13.13
2023-02-08T01:49:09.656Z,13.50
2023-02-08T01:51:41.373Z,13.03
2023-02-08T01:54:11.222Z,13.10
2023-02-08T01:56:43.282Z,13.70
2023-02-08T01:59:14.711Z,13.40
2023-02-08T02:01:43.628Z,13.57
2023-02-08T02:04:10.885Z,13.50
2023-02-08T02:06:43.041Z,13.93
2023-02-08T02:09:19.218Z,13.70
2023-02-08T02:11:46.345Z,13.37
2023-02-08T02:14:13.668Z,13.37
2023-02-08T02:16:40.610Z,13.60
2023-02-08T02:19:20.312Z,13.60
2023-02-08T02:22:05.163Z,13.37
2023-02-08T02:24:45.478Z,13.03
2023-02-08T02:27:35.794Z,12.73
2023-02-08T02:30:34.376Z,12.63
2023-02-08T02:33:16.101Z,13.07
2023-02-08T02:36:11.236Z,13.47
2023-02-08T02:38:46.767Z,13.40
2023-02-08T02:42:03.946Z,13.17
2023-02-08T02:44:58.516Z,13.13
2023-02-08T02:48:02.335Z,13.17
2023-02-08T02:50:43.564Z,13.23
2023-02-08T02:53:28.088Z,13.03
2023-02-08T02:56:02.493Z,12.97
2023-02-08T02:58:32.338Z,12.67
2023-02-08T03:01:00.190Z,12.70
2023-02-08T03:03:33.260Z,12.90
2023-02-08T03:06:07.166Z,12.70
2023-02-08T03:08:52.658Z,12.47
2023-02-08T03:11:45.126Z,12.67
2023-02-08T03:14:50.589Z,12.80
2023-02-08T03:17:34.294Z,13.00
2023-02-08T03:20:14.216Z,12.43
2023-02-08T03:23:09.964Z,12.90
2023-02-08T03:25:51.304Z,12.73
2023-02-08T03:28:18.491Z,12.33
2023-02-08T03:31:09.829Z,12.40
2023-02-08T03:33:40.520Z,12.53
2023-02-08T03:36:34.620Z,12.97
2023-02-08T03:39:05.554Z,12.47
2023-02-08T03:41:36.386Z,14.07
2023-02-08T03:44:09.745Z,12.90
2023-02-08T03:46:44.549Z,12.73
2023-02-08T03:49:20.908Z,13.00
2023-02-08T03:51:49.000Z,12.80
2023-02-08T03:54:27.302Z,12.47
2023-02-08T03:56:56.140Z,12.57
2023-02-08T03:59:30.378Z,12.80
2023-02-08T04:02:00.673Z,12.60
2023-02-08T04:04:32.058Z,12.90
2023-02-08T04:06:59.168Z,12.90
2023-02-08T04:09:26.051Z,12.83
2023-02-08T04:11:52.977Z,12.67
2023-02-08T04:14:19.844Z,13.00
2023-02-08T04:16:46.848Z,12.40
2023-02-08T04:19:13.686Z,13.10
2023-02-08T04:21:40.558Z,12.60
2023-02-08T04:24:07.490Z,12.90
2023-02-08T04:26:34.992Z,13.10
2023-02-08T04:29:01.906Z,12.97
2023-02-08T04:31:29.117Z,12.70
2023-02-08T04:33:56.027Z,13.03
2023-02-08T04:36:23.087Z,12.77
2023-02-08T04:38:49.965Z,12.73
2023-02-08T04:41:17.016Z,12.57
2023-02-08T04:43:43.976Z,12.70
2023-02-08T04:46:11.396Z,12.63
2023-02-08T04:48:38.301Z,12.63
2023-02-08T04:51:05.555Z,12.50
2023-02-08T04:53:32.466Z,12.97
2023-02-08T04:55:59.364Z,12.83
2023-02-08T04:58:26.259Z,12.33
2023-02-08T05:00:53.398Z,12.23
2023-02-08T05:03:20.342Z,12.43
2023-02-08T05:05:47.326Z,12.10
2023-02-08T05:08:14.236Z,12.57
2023-02-08T05:10:46.053Z,12.60
2023-02-08T05:13:12.986Z,12.57
2023-02-08T05:15:39.806Z,12.67
2023-02-08T05:18:06.783Z,12.37
2023-02-08T05:20:33.988Z,12.37
2023-02-08T05:23:00.907Z,12.53
2023-02-08T05:25:27.683Z,12.43
2023-02-08T05:27:54.713Z,12.60
2023-02-08T05:30:21.640Z,13.00
2023-02-08T05:32:48.626Z,19.83
2023-02-08T05:35:15.397Z,12.80
2023-02-08T05:37:42.368Z,12.37
2023-02-08T05:40:09.880Z,12.53
2023-02-08T05:42:36.846Z,12.40
2023-02-08T05:45:03.814Z,12.70
2023-02-08T05:47:30.699Z,12.80
2023-02-08T05:49:57.474Z,12.73
2023-02-08T05:52:24.542Z,14.03
2023-02-08T05:54:51.351Z,13.13
2023-02-08T05:57:18.281Z,13.27
2023-02-08T05:59:45.194Z,13.53
2023-02-08T06:02:12.116Z,13.43
2023-02-08T06:04:39.270Z,13.80
2023-02-08T06:07:06.640Z,13.40
2023-02-08T06:09:33.462Z,13.60
2023-02-08T06:12:00.383Z,13.50
2023-02-08T06:14:27.316Z,13.77
2023-02-08T06:16:54.307Z,13.70
2023-02-08T06:19:21.347Z,12.70
2023-02-08T06:21:48.596Z,13.40
2023-02-08T06:24:16.672Z,13.10
2023-02-08T06:26:44.450Z,13.60
2023-02-08T06:29:11.483Z,13.03
2023-02-08T06:31:38.496Z,13.20
2023-02-08T06:34:05.485Z,13.00
2023-02-08T06:36:32.842Z,13.07
2023-02-08T06:38:59.680Z,12.20
2023-02-08T06:41:27.279Z,12.77
2023-02-08T06:43:54.192Z,12.80
2023-02-08T06:46:21.052Z,14.30
2023-02-08T06:48:47.874Z,13.00
2023-02-08T06:51:14.934Z,13.03
2023-02-08T06:53:41.695Z,12.83
2023-02-08T06:56:08.687Z,12.73
2023-02-08T06:58:35.575Z,13.00
2023-02-08T07:01:02.528Z,13.27
2023-02-08T07:03:29.718Z,12.90
2023-02-08T07:06:04.998Z,12.90
2023-02-08T07:08:34.006Z,12.93
2023-02-08T07:11:05.659Z,13.10
2023-02-08T07:13:32.706Z,12.73
2023-02-08T07:15:59.623Z,12.70
2023-02-08T07:18:26.658Z,13.10
2023-02-08T07:20:53.628Z,13.53
2023-02-08T07:23:20.595Z,13.83
2023-02-08T07:25:59.741Z,13.33
2023-02-08T07:28:27.357Z,13.47
2023-02-08T07:30:54.762Z,13.47
2023-02-08T07:33:22.968Z,12.93
2023-02-08T07:35:49.876Z,13.40
2023-02-08T07:38:20.651Z,13.07
2023-02-08T07:40:48.019Z,12.63
2023-02-08T07:43:14.905Z,13.60
2023-02-08T07:45:51.570Z,12.97
2023-02-08T07:48:18.674Z,13.10
2023-02-08T07:50:45.417Z,12.87
2023-02-08T07:53:12.460Z,12.90
2023-02-08T07:55:39.356Z,12.70
2023-02-08T07:58:06.287Z,13.37
2023-02-08T08:00:33.133Z,13.37
2023-02-08T08:03:00.745Z,13.13
2023-02-08T08:05:27.588Z,13.77
2023-02-08T08:07:54.497Z,12.47
2023-02-08T08:10:21.428Z,13.02
2023-02-08T08:12:48.337Z,13.03
2023-02-08T08:15:15.132Z,12.93
2023-02-08T08:17:42.365Z,13.60
2023-02-08T08:20:13.376Z,12.80
2023-02-08T08:22:40.405Z,13.47
2023-02-08T08:25:07.458Z,13.20
2023-02-08T08:27:35.237Z,13.17
2023-02-08T08:30:02.421Z,13.33
2023-02-08T08:32:29.690Z,12.83
2023-02-08T08:34:56.457Z,13.43
2023-02-08T08:37:23.400Z,13.37
2023-02-08T08:39:50.348Z,12.50
2023-02-08T08:42:17.613Z,12.70
2023-02-08T08:44:44.835Z,12.70
2023-02-08T08:47:12.033Z,12.70
2023-02-08T08:49:38.872Z,12.63
2023-02-08T08:52:07.903Z,12.40
2023-02-08T08:54:35.388Z,12.20
2023-02-08T08:57:03.256Z,12.20
2023-02-08T08:59:30.111Z,12.23
2023-02-08T09:01:57.256Z,12.67
2023-02-08T09:04:24.469Z,12.27
2023-02-08T09:06:52.721Z,12.53
2023-02-08T09:09:20.803Z,12.53
2023-02-08T09:11:48.200Z,12.43
2023-02-08T09:14:15.449Z,12.47
2023-02-08T09:16:47.894Z,12.53
2023-02-08T09:19:16.282Z,12.33
2023-02-08T09:21:43.345Z,12.07
2023-02-08T09:24:10.904Z,12.63
2023-02-08T09:26:38.400Z,12.20
2023-02-08T09:29:06.539Z,12.10
2023-02-08T09:31:37.976Z,11.57
2023-02-08T09:34:06.709Z,11.50
2023-02-08T09:36:36.832Z,11.90
2023-02-08T09:39:24.730Z,11.80
2023-02-08T09:42:13.392Z,12.10
2023-02-08T09:45:01.374Z,12.13
2023-02-08T09:47:35.077Z,12.03
2023-02-08T09:50:15.739Z,12.60
2023-02-08T09:52:50.253Z,11.80
2023-02-08T09:55:32.329Z,11.67
2023-02-08T09:58:04.151Z,10.87
2023-02-08T10:00:36.787Z,11.10
2023-02-08T10:03:04.129Z,12.23
2023-02-08T10:05:31.701Z,11.50
2023-02-08T10:08:00.727Z,11.73
2023-02-08T10:10:43.840Z,11.80
2023-02-08T10:13:49.536Z,11.73
2023-02-08T10:16:35.450Z,11.77
2023-02-08T10:19:21.479Z,12.03
2023-02-08T10:22:23.151Z,11.80
2023-02-08T10:24:57.901Z,12.07
2023-02-08T10:27:50.513Z,12.03
2023-02-08T10:30:43.989Z,11.73
2023-02-08T10:33:23.068Z,11.70
2023-02-08T10:35:51.770Z,11.70
2023-02-08T10:38:21.304Z,11.70
2023-02-08T10:41:02.857Z,11.70
2023-02-08T10:43:40.217Z,11.60
2023-02-08T10:46:15.856Z,11.90
2023-02-08T10:49:00.143Z,12.37
2023-02-08T10:51:29.259Z,12.13
2023-02-08T10:53:56.519Z,11.77
2023-02-08T10:56:36.165Z,11.67
2023-02-08T10:59:24.342Z,11.83
2023-02-08T11:01:53.136Z,12.33
2023-02-08T11:04:20.488Z,11.30
2023-02-08T11:06:49.044Z,11.77
2023-02-08T11:09:25.043Z,12.40
2023-02-08T11:11:53.612Z,11.80
2023-02-08T11:14:26.042Z,12.07
2023-02-08T11:16:56.640Z,12.00
2023-02-08T11:19:31.269Z,12.17
2023-02-08T11:21:59.062Z,12.60
2023-02-08T11:24:33.353Z,12.70
2023-02-08T11:27:01.821Z,12.60
2023-02-08T11:29:30.894Z,12.57
2023-02-08T11:32:19.652Z,12.40
2023-02-08T11:34:46.835Z,12.10
2023-02-08T11:37:25.977Z,12.50
2023-02-08T11:39:55.355Z,12.50
2023-02-08T11:42:29.041Z,12.60
2023-02-08T11:44:58.195Z,12.30
2023-02-08T11:47:28.159Z,11.83
2023-02-08T11:49:58.211Z,12.43
2023-02-08T11:52:31.373Z,12.57
2023-02-08T11:55:16.896Z,11.90
2023-02-08T11:57:54.812Z,11.90
2023-02-08T12:00:26.769Z,11.83
2023-02-08T12:03:06.019Z,11.90
2023-02-08T12:05:56.117Z,12.00
2023-02-08T12:08:36.391Z,12.07
2023-02-08T12:11:27.613Z,12.10
2023-02-08T12:14:28.609Z,11.70
2023-02-08T12:17:22.973Z,12.00
2023-02-08T12:20:01.005Z,11.70
2023-02-08T12:22:29.557Z,11.30
2023-02-08T12:25:24.861Z,12.10
2023-02-08T12:28:18.151Z,11.70
2023-02-08T12:31:10.932Z,11.90
2023-02-08T12:33:43.879Z,12.40
2023-02-08T12:36:19.529Z,12.20
2023-02-08T12:39:24.674Z,12.30
2023-02-08T12:42:04.637Z,11.93
2023-02-08T12:44:58.317Z,12.03
2023-02-08T12:47:40.782Z,12.13
2023-02-08T12:50:31.444Z,11.93
2023-02-08T12:53:05.686Z,12.10
2023-02-08T12:55:41.863Z,12.10
2023-02-08T12:58:29.999Z,12.57
2023-02-08T13:01:02.805Z,12.23
2023-02-08T13:03:36.253Z,11.73
2023-02-08T13:06:07.314Z,12.10
2023-02-08T13:09:00.773Z,12.30
2023-02-08T13:11:39.826Z,11.70
2023-02-08T13:14:32.307Z,12.27
2023-02-08T13:17:06.827Z,12.20
2023-02-08T13:19:58.948Z,12.30
2023-02-08T13:22:26.991Z,12.37
2023-02-08T13:25:07.161Z,12.47
2023-02-08T13:27:35.329Z,12.00
2023-02-08T13:30:02.690Z,12.27
2023-02-08T13:32:43.915Z,12.17
2023-02-08T13:35:40.691Z,11.87
2023-02-08T13:38:31.684Z,12.30
2023-02-08T13:41:06.499Z,11.93
2023-02-08T13:43:40.578Z,12.30
2023-02-08T13:46:08.756Z,12.37
2023-02-08T13:48:46.070Z,12.17
2023-02-08T13:51:36.112Z,12.30
2023-02-08T13:54:12.136Z,12.20
2023-02-08T13:56:43.972Z,12.23
2023-02-08T13:59:35.455Z,12.50
2023-02-08T14:02:11.726Z,12.23
2023-02-08T14:04:43.714Z,12.30
2023-02-08T14:07:32.952Z,11.87
2023-02-08T14:10:17.873Z,12.50
2023-02-08T14:13:26.620Z,12.70
2023-02-08T14:16:21.115Z,12.03
2023-02-08T14:18:56.331Z,12.10
2023-02-08T14:21:30.913Z,12.63
2023-02-08T14:24:07.996Z,12.27
2023-02-08T14:26:36.821Z,12.47
2023-02-08T14:29:06.286Z,12.53
2023-02-08T14:31:44.943Z,12.30
2023-02-08T14:34:35.933Z,12.70
2023-02-08T14:37:31.553Z,12.30
2023-02-08T14:40:32.631Z,12.53
2023-02-08T14:43:19.122Z,13.00
2023-02-08T14:45:51.856Z,12.50
2023-02-08T14:48:24.786Z,12.33
2023-02-08T14:51:06.266Z,12.40
2023-02-08T14:53:44.229Z,12.60
2023-02-08T14:56:23.246Z,12.30
2023-02-08T14:59:17.964Z,12.47
2023-02-08T15:02:14.963Z,12.13
2023-02-08T15:04:44.006Z,12.33
2023-02-08T15:07:16.469Z,12.50
2023-02-08T15:09:45.383Z,12.30
2023-02-08T15:12:31.958Z,12.10
2023-02-08T15:15:01.164Z,11.90
2023-02-08T15:17:27.923Z,12.03
2023-02-08T15:19:55.414Z,12.33
2023-02-08T15:22:25.870Z,12.13
2023-02-08T15:25:01.789Z,12.30
2023-02-08T15:27:34.020Z,12.10
2023-02-08T15:30:01.699Z,12.40
2023-02-08T15:32:30.049Z,12.53
2023-02-08T15:35:02.651Z,12.30
2023-02-08T15:37:33.892Z,12.13
2023-02-08T15:40:03.019Z,12.20
2023-02-08T15:42:33.645Z,12.20
2023-02-08T15:45:02.826Z,12.27
2023-02-08T15:47:39.841Z,12.10
2023-02-08T15:50:08.522Z,12.00
2023-02-08T15:52:36.857Z,11.97
2023-02-08T15:55:08.101Z,11.60
2023-02-08T15:57:55.113Z,11.77
2023-02-08T16:00:28.538Z,11.87
2023-02-08T16:02:59.386Z,11.97
2023-02-08T16:05:31.055Z,11.97
2023-02-08T16:07:59.157Z,11.93
2023-02-08T16:10:38.800Z,11.60
2023-02-08T16:13:16.336Z,12.00
2023-02-08T16:15:45.621Z,12.30
2023-02-08T16:18:38.238Z,11.80
2023-02-08T16:21:19.691Z,12.00
2023-02-08T16:23:56.574Z,12.13
2023-02-08T16:26:28.924Z,12.00
2023-02-08T16:29:02.078Z,12.20
2023-02-08T16:31:31.253Z,12.03
2023-02-08T16:34:23.230Z,12.43
2023-02-08T16:36:52.233Z,11.90
2023-02-08T16:39:19.042Z,12.10
2023-02-08T16:42:06.372Z,12.40
2023-02-08T16:45:02.208Z,12.60
2023-02-08T16:47:51.382Z,12.77
2023-02-08T16:50:24.262Z,12.27
2023-02-08T16:52:59.099Z,12.20
2023-02-08T16:55:28.263Z,12.20
2023-02-08T16:57:57.475Z,12.33
2023-02-08T17:00:34.172Z,12.20
2023-02-08T17:03:01.902Z,11.67
2023-02-08T17:05:36.764Z,11.77
2023-02-08T17:08:07.891Z,12.33
2023-02-08T17:10:34.857Z,12.60
2023-02-08T17:13:20.681Z,12.00
2023-02-08T17:15:50.611Z,11.83
2023-02-08T17:18:18.152Z,12.30
2023-02-08T17:20:45.802Z,12.07
2023-02-08T17:23:15.559Z,12.30
2023-02-08T17:25:43.093Z,11.90
2023-02-08T17:28:17.136Z,11.63
2023-02-08T17:30:45.173Z,12.10
2023-02-08T17:33:19.902Z,11.60
2023-02-08T17:35:49.103Z,12.23
2023-02-08T17:38:16.472Z,11.40
2023-02-08T17:40:44.140Z,10.43
2023-02-08T17:43:12.084Z,11.97
2023-02-08T17:45:40.953Z,11.13
2023-02-08T17:48:08.473Z,11.40
2023-02-08T17:50:36.423Z,11.33
2023-02-08T17:53:04.267Z,11.07
2023-02-08T17:55:31.330Z,11.00
2023-02-08T17:57:58.377Z,10.80
2023-02-08T18:00:25.988Z,10.87
2023-02-08T18:02:55.060Z,11.00
2023-02-08T18:05:27.669Z,10.20
2023-02-08T18:07:56.597Z,11.67
2023-02-08T18:10:25.063Z,11.43
2023-02-08T18:12:52.048Z,11.47
2023-02-08T18:15:21.644Z,11.60
2023-02-08T18:17:50.419Z,10.93
2023-02-08T18:20:18.063Z,11.47
2023-02-08T18:22:46.040Z,11.27
2023-02-08T18:25:14.510Z,11.30
2023-02-08T18:27:42.086Z,11.13
2023-02-08T18:30:10.610Z,10.70
2023-02-08T18:32:37.527Z,11.37
2023-02-08T18:35:06.829Z,11.10
2023-02-08T18:37:35.225Z,11.70
2023-02-08T18:40:02.236Z,11.30
2023-02-08T18:42:29.326Z,10.90
2023-02-08T18:44:56.222Z,11.63
2023-02-08T18:47:23.156Z,11.07
2023-02-08T18:49:57.635Z,11.30
2023-02-08T18:52:24.782Z,11.90
2023-02-08T18:54:51.672Z,10.93
2023-02-08T18:57:19.023Z,10.97
2023-02-08T18:59:45.904Z,11.40
2023-02-08T19:02:22.148Z,10.67
2023-02-08T19:04:49.594Z,10.60
2023-02-08T19:07:16.496Z,10.90
2023-02-08T19:09:44.174Z,11.20
2023-02-08T19:12:15.406Z,11.43
2023-02-08T19:14:43.760Z,10.30
2023-02-08T19:17:13.601Z,10.37
2023-02-08T19:19:42.591Z,9.93
2023-02-08T19:22:09.494Z,10.97
2023-02-08T19:24:36.614Z,10.93
2023-02-08T19:27:03.598Z,11.40
2023-02-08T19:29:32.766Z,10.70
2023-02-08T19:31:59.599Z,10.97
2023-02-08T19:34:26.862Z,10.80
2023-02-08T19:36:55.128Z,10.80
2023-02-08T19:39:27.164Z,10.70
2023-02-08T19:41:54.375Z,11.10
2023-02-08T19:44:22.987Z,11.07
2023-02-08T19:46:53.201Z,11.37
2023-02-08T19:49:21.449Z,11.33
2023-02-08T19:51:48.766Z,11.57
2023-02-08T19:54:18.071Z,11.30
2023-02-08T19:56:46.253Z,11.77
2023-02-08T19:59:29.340Z,11.67
2023-02-08T20:01:56.381Z,11.40
2023-02-08T20:04:24.197Z,11.60
2023-02-08T20:06:53.955Z,11.43
2023-02-08T20:09:21.469Z,12.00
2023-02-08T20:11:56.849Z,11.40
2023-02-08T20:14:25.198Z,10.83
2023-02-08T20:16:52.222Z,11.37
2023-02-08T20:19:19.175Z,11.10
2023-02-08T20:21:46.156Z,10.77
2023-02-08T20:24:13.980Z,10.93
2023-02-08T20:26:43.599Z,10.50
2023-02-08T20:29:11.653Z,10.20
2023-02-08T20:31:42.597Z,10.33
2023-02-08T20:34:13.374Z,10.07
2023-02-08T20:36:45.105Z,10.57
2023-02-08T20:39:18.591Z,10.80
2023-02-08T20:41:45.879Z,10.80
2023-02-08T20:44:15.464Z,11.60
2023-02-08T20:46:43.236Z,10.97
2023-02-08T20:49:11.834Z,10.90
2023-02-08T20:51:38.746Z,10.53
2023-02-08T20:54:09.158Z,11.10
2023-02-08T20:56:38.111Z,11.63
2023-02-08T20:59:07.472Z,11.67
2023-02-08T21:01:35.743Z,11.10
2023-02-08T21:04:04.432Z,11.30
2023-02-08T21:06:37.765Z,10.40
2023-02-08T21:09:11.089Z,10.70
2023-02-08T21:11:38.469Z,11.40
2023-02-08T21:14:06.478Z,11.57
2023-02-08T21:16:33.658Z,11.40
2023-02-08T21:19:00.848Z,11.37
2023-02-08T21:21:28.641Z,10.63
2023-02-08T21:23:57.890Z,11.77
2023-02-08T21:26:26.125Z,11.90
2023-02-08T21:28:56.812Z,11.80
2023-02-08T21:31:24.765Z,11.47
2023-02-08T21:33:52.859Z,11.50
2023-02-08T21:36:24.077Z,11.53
2023-02-08T21:38:51.708Z,11.80
2023-02-08T21:41:30.033Z,11.57
2023-02-08T21:43:59.082Z,11.27
2023-02-08T21:46:27.879Z,11.50
2023-02-08T21:49:14.598Z,11.90
2023-02-08T21:52:00.498Z,11.63
2023-02-08T21:54:31.557Z,11.40
2023-02-08T21:57:00.169Z,11.00
2023-02-08T21:59:28.168Z,11.00
2023-02-08T22:01:55.190Z,10.80
2023-02-08T22:04:22.087Z,11.17
2023-02-08T22:06:49.204Z,11.67
2023-02-08T22:09:17.533Z,12.17
2023-02-08T22:11:45.116Z,12.13
2023-02-08T22:14:12.509Z,11.20
2023-02-08T22:16:40.335Z,11.40
2023-02-08T22:19:07.315Z,11.20
2023-02-08T22:21:34.864Z,11.80
2023-02-08T22:24:01.900Z,11.67
2023-02-08T22:26:29.050Z,11.57
2023-02-08T22:28:55.993Z,12.10
2023-02-08T22:31:23.287Z,11.60
2023-02-08T22:33:53.599Z,11.93
2023-02-08T22:36:21.332Z,10.90
2023-02-08T22:38:48.353Z,11.43
2023-02-08T22:41:16.665Z,11.50
2023-02-08T22:43:44.057Z,11.53
2023-02-08T22:46:11.310Z,11.77
2023-02-08T22:48:38.541Z,12.13
2023-02-08T22:51:10.672Z,11.73
2023-02-08T22:53:37.647Z,11.57
2023-02-08T22:56:05.402Z,11.80
2023-02-08T22:58:32.887Z,11.37
2023-02-08T23:00:59.692Z,11.90
2023-02-08T23:03:27.070Z,11.67
2023-02-08T23:05:54.017Z,12.10
2023-02-08T23:08:22.565Z,11.67
2023-02-08T23:10:49.828Z,12.03
2023-02-08T23:13:16.937Z,11.87
2023-02-08T23:15:45.051Z,11.60
2023-02-08T23:18:12.730Z,12.10
2023-02-08T23:20:40.710Z,11.87
2023-02-08T23:23:08.056Z,12.40
2023-02-08T23:25:37.929Z,12.13
2023-02-08T23:28:05.413Z,12.57
2023-02-08T23:30:32.316Z,12.17
2023-02-08T23:32:59.790Z,12.13
2023-02-08T23:35:26.656Z,12.27
2023-02-08T23:37:53.692Z,12.87
2023-02-08T23:40:20.543Z,12.70
2023-02-08T23:42:47.717Z,12.07
2023-02-08T23:45:14.682Z,12.10
2023-02-08T23:47:41.827Z,12.60
2023-02-08T23:50:10.475Z,12.60
2023-02-08T23:52:37.769Z,12.50
2023-02-08T23:55:05.886Z,12.50
2023-02-08T23:57:34.988Z,12.33
